Time;durP1;ratioP1;P1;durP2;ratioP2;P2;SDS_P1;SDS_P2;PMS_P1;PMS_P2;Temp;Humidity;BMP_temperature;BMP_pressure;BME280_temperature;BME280_humidity;BME280_pressure;Samples;Min_cycle;Max_cycle;Signal;HPM_P1;HPM_P2
2022/05/08 00:02:22;;;;;;;42.05;5.93;;;;;;;;;;5067204;28;20048;-73
2022/05/08 00:04:51;;;;;;;36.17;7.07;;;;;;;;;;5071672;28;20087;-73
2022/05/08 00:07:21;;;;;;;47.53;6.13;;;8.80;99.90;;;;;;5073155;28;20064;-73
2022/05/08 00:09:47;;;;;;;34.42;6.30;;;;;;;;;;5077017;28;20036;-73
2022/05/08 00:12:14;;;;;;;42.47;6.47;;;8.90;99.90;;;;;;5084178;28;20086;-73
2022/05/08 00:14:41;;;;;;;43.42;6.78;;;8.90;99.90;;;;;;5076612;28;20365;-73
2022/05/08 00:17:11;;;;;;;49.58;7.22;;;;;;;;;;5076108;28;20050;-73
2022/05/08 00:19:43;;;;;;;37.13;5.60;;;8.90;99.90;;;;;;5089773;28;20085;-73
2022/05/08 00:22:10;;;;;;;33.10;6.43;;;;;;;;;;5067380;28;20040;-73
2022/05/08 00:24:36;;;;;;;37.47;5.40;;;;;;;;;;5083327;28;20038;-73
2022/05/08 00:27:02;;;;;;;34.33;7.07;;;;;;;;;;5088827;28;20032;-73
2022/05/08 00:29:29;;;;;;;31.13;5.80;;;;;;;;;;5071496;28;20059;-73
2022/05/08 00:31:55;;;;;;;31.25;5.22;;;;;;;;;;5083352;28;20495;-73
2022/05/08 00:34:21;;;;;;;37.50;5.82;;;;;;;;;;5075397;28;20047;-73
2022/05/08 00:36:47;;;;;;;32.25;5.82;;;;;;;;;;5075918;28;20044;-73
2022/05/08 00:39:13;;;;;;;44.63;7.78;;;;;;;;;;5073214;28;20097;-73
2022/05/08 00:41:39;;;;;;;37.65;5.95;;;;;;;;;;5075820;28;20499;-73
2022/05/08 00:44:06;;;;;;;41.13;8.20;;;;;;;;;;5088693;28;20043;-73
2022/05/08 00:46:32;;;;;;;40.85;6.47;;;;;;;;;;5075216;28;20025;-73
2022/05/08 00:48:58;;;;;;;35.40;6.57;;;;;;;;;;5081083;28;20127;-73
2022/05/08 00:51:24;;;;;;;33.03;6.43;;;;;;;;;;5084883;28;20089;-73
2022/05/08 00:53:51;;;;;;;40.58;5.72;;;;;;;;;;5082138;28;20146;-73
2022/05/08 00:56:19;;;;;;;36.55;5.63;;;8.70;99.90;;;;;;5091330;28;20090;-73
2022/05/08 00:58:47;;;;;;;27.35;5.55;;;8.70;99.90;;;;;;5067118;28;20047;-73
2022/05/08 01:01:14;;;;;;;34.22;6.43;;;;;;;;;;5092985;28;20502;-73
2022/05/08 01:03:40;;;;;;;34.85;5.70;;;8.30;99.90;;;;;;5082047;28;20403;-72
2022/05/08 01:06:12;;;;;;;35.47;6.25;;;8.60;99.90;;;;;;5092696;28;20499;-72
2022/05/08 01:08:39;;;;;;;32.20;6.50;;;;;;;;;;5074648;28;20020;-72
2022/05/08 01:11:07;;;;;;;35.97;6.60;;;8.40;99.90;;;;;;5075398;28;20480;-72
2022/05/08 01:13:33;;;;;;;35.75;6.97;;;;;;;;;;5073356;28;20047;-72
2022/05/08 01:15:59;;;;;;;29.95;4.60;;;;;;;;;;5074170;28;20037;-72
2022/05/08 01:18:26;;;;;;;32.53;5.32;;;;;;;;;;5087060;28;20039;-72
2022/05/08 01:20:52;;;;;;;35.03;5.45;;;;;;;;;;5092052;28;20040;-72
2022/05/08 01:23:19;;;;;;;25.77;5.53;;;;;;;;;;5098562;28;20389;-72
2022/05/08 01:25:52;;;;;;;38.55;6.32;;;;;;;;;;5088476;28;20033;-72
2022/05/08 01:28:19;;;;;;;23.67;5.60;;;;;;;;;;5084366;28;20510;-72
2022/05/08 01:30:46;;;;;;;27.67;5.30;;;;;;;;;;5079381;28;20043;-72
2022/05/08 01:33:12;;;;;;;41.45;6.13;;;8.40;99.90;;;;;;5074086;28;20358;-73
2022/05/08 01:35:39;;;;;;;30.83;6.65;;;;;;;;;;5104503;28;20048;-72
2022/05/08 01:38:05;;;;;;;28.02;5.45;;;;;;;;;;5073762;28;20044;-73
2022/05/08 01:40:31;;;;;;;23.65;6.15;;;;;;;;;;5087059;28;20068;-73
2022/05/08 01:42:58;;;;;;;26.25;5.97;;;8.20;99.90;;;;;;5072801;28;20037;-73
2022/05/08 01:45:24;;;;;;;23.95;4.85;;;;;;;;;;5087171;28;20077;-73
2022/05/08 01:50:36;;;;;;;29.77;5.35;;;;;;;;;;5086751;28;20044;-73
2022/05/08 01:53:02;;;;;;;32.35;5.63;;;;;;;;;;5091685;28;20040;-73
2022/05/08 01:55:28;;;;;;;32.33;5.82;;;;;;;;;;5078405;28;20492;-73
2022/05/08 01:57:55;;;;;;;24.52;4.45;;;;;;;;;;5074668;28;20370;-73
2022/05/08 02:00:21;;;;;;;37.28;7.63;;;;;;;;;;5084600;28;20392;-73
2022/05/08 02:02:48;;;;;;;36.63;7.15;;;8.30;99.90;;;;;;5091329;28;20056;-73
2022/05/08 02:05:18;;;;;;;21.60;5.20;;;;;;;;;;5081823;28;20041;-73
2022/05/08 02:07:45;;;;;;;23.33;5.93;;;;;;;;;;5089004;28;20116;-73
2022/05/08 02:10:11;;;;;;;42.55;5.22;;;;;;;;;;5085948;28;20388;-72
2022/05/08 02:12:38;;;;;;;20.58;4.55;;;;;;;;;;5074425;28;20049;-73
2022/05/08 02:15:04;;;;;;;33.38;6.78;;;;;;;;;;5062791;28;20101;-72
2022/05/08 02:17:30;;;;;;;22.50;5.25;;;;;;;;;;5074113;28;20117;-73
2022/05/08 02:19:56;;;;;;;26.60;5.53;;;;;;;;;;5069319;28;20045;-73
2022/05/08 02:22:22;;;;;;;36.45;6.82;;;;;;;;;;5079190;28;20036;-73
2022/05/08 02:24:49;;;;;;;29.58;5.90;;;;;;;;;;5086133;28;20484;-73
2022/05/08 02:27:16;;;;;;;31.35;5.88;;;;;;;;;;5074381;28;20036;-73
2022/05/08 02:29:42;;;;;;;28.77;5.22;;;;;;;;;;5088945;28;20038;-73
2022/05/08 02:32:08;;;;;;;37.88;5.50;;;;;;;;;;5072738;28;20098;-73
2022/05/08 02:34:34;;;;;;;32.58;5.13;;;;;;;;;;5073317;28;20135;-73
2022/05/08 02:37:00;;;;;;;31.08;4.95;;;;;;;;;;5078231;28;20032;-73
2022/05/08 02:39:26;;;;;;;24.98;4.70;;;;;;;;;;5072487;28;20033;-73
2022/05/08 02:41:52;;;;;;;35.63;4.63;;;;;;;;;;5085702;28;20082;-72
2022/05/08 02:44:19;;;;;;;22.73;4.88;;;;;;;;;;5072744;28;20047;-73
2022/05/08 02:46:45;;;;;;;30.75;5.00;;;;;;;;;;5086472;28;20384;-73
2022/05/08 02:49:11;;;;;;;38.90;4.80;;;;;;;;;;5090889;28;20434;-73
2022/05/08 02:51:37;;;;;;;20.45;4.57;;;;;;;;;;5076914;28;20032;-73
2022/05/08 02:54:04;;;;;;;19.85;4.50;;;;;;;;;;5084734;28;20047;-73
2022/05/08 02:59:15;;;;;;;23.92;4.15;;;;;;;;;;5089781;28;20050;-73
2022/05/08 03:01:41;;;;;;;30.48;4.50;;;;;;;;;;5061423;28;20068;-72
2022/05/08 03:04:07;;;;;;;20.27;4.65;;;;;;;;;;5061523;28;20087;-72
2022/05/08 03:06:33;;;;;;;24.02;4.45;;;;;;;;;;5083780;28;20028;-73
2022/05/08 03:09:00;;;;;;;17.80;4.10;;;;;;;;;;5083020;28;20497;-72
2022/05/08 03:11:26;;;;;;;20.48;4.22;;;;;;;;;;5080940;28;20051;-72
2022/05/08 03:13:52;;;;;;;25.80;4.57;;;;;;;;;;5084025;28;20040;-73
2022/05/08 03:16:19;;;;;;;22.02;4.10;;;;;;;;;;5079547;28;20036;-73
2022/05/08 03:18:45;;;;;;;14.38;4.10;;;;;;;;;;5057360;28;20055;-72
2022/05/08 03:21:13;;;;;;;25.58;4.82;;;7.80;99.90;;;;;;5082973;28;20105;-72
2022/05/08 03:23:40;;;;;;;23.15;4.38;;;7.70;99.90;;;;;;5064170;28;20113;-72
2022/05/08 03:26:06;;;;;;;23.02;5.75;;;;;;;;;;5088542;28;20040;-73
2022/05/08 03:28:33;;;;;;;24.38;5.20;;;7.70;99.90;;;;;;5073315;28;20039;-72
2022/05/08 03:31:00;;;;;;;24.02;5.00;;;;;;;;;;5069734;28;20551;-72
2022/05/08 03:33:27;;;;;;;24.95;5.13;;;7.70;99.90;;;;;;5072449;28;20507;-72
2022/05/08 03:35:53;;;;;;;14.80;4.25;;;;;;;;;;5057778;28;20047;-73
2022/05/08 03:38:19;;;;;;;18.38;4.65;;;;;;;;;;5089768;28;20444;-72
2022/05/08 03:40:45;;;;;;;24.38;4.18;;;;;;;;;;5088685;28;20037;-72
2022/05/08 03:43:11;;;;;;;24.25;5.63;;;;;;;;;;5077628;28;20089;-72
2022/05/08 03:45:37;;;;;;;19.63;4.10;;;;;;;;;;5072097;28;20039;-72
2022/05/08 03:48:04;;;;;;;14.02;3.53;;;;;;;;;;5065362;28;20131;-72
2022/05/08 03:50:30;;;;;;;20.58;4.07;;;;;;;;;;5074385;28;20060;-72
2022/05/08 03:52:57;;;;;;;20.40;3.75;;;;;;;;;;5061798;28;20461;-71
2022/05/08 03:55:23;;;;;;;20.70;3.90;;;;;;;;;;5088001;28;20123;-72
2022/05/08 03:57:49;;;;;;;16.77;5.15;;;;;;;;;;5063240;28;20511;-73
2022/05/08 04:00:16;;;;;;;19.92;4.43;;;6.90;99.90;;;;;;5071669;28;20029;-73
2022/05/08 04:02:42;;;;;;;21.92;3.83;;;7.40;99.90;;;;;;5080041;28;20040;-73
2022/05/08 04:05:09;;;;;;;15.77;4.70;;;8.30;99.90;;;;;;5067335;28;20120;-74
2022/05/08 04:07:35;;;;;;;17.85;3.30;;;;;;;;;;5082053;28;20048;-72
2022/05/08 04:10:01;;;;;;;17.58;3.97;;;;;;;;;;5093663;28;20105;-73
2022/05/08 04:12:27;;;;;;;18.00;3.78;;;;;;;;;;5088620;28;20377;-73
2022/05/08 04:14:54;;;;;;;15.80;3.42;;;;;;;;;;5082498;28;20040;-73
2022/05/08 04:17:20;;;;;;;17.33;3.50;;;;;;;;;;5083827;28;20392;-73
2022/05/08 04:19:49;;;;;;;13.48;3.13;;;;;;;;;;5079731;28;20044;-74
2022/05/08 04:25:00;;;;;;;18.38;4.43;;;;;;;;;;5086910;28;20041;-73
2022/05/08 04:27:26;;;;;;;13.13;3.50;;;;;;;;;;5077993;28;20062;-73
2022/05/08 04:29:52;;;;;;;20.02;4.65;;;;;;;;;;5092645;28;20044;-73
2022/05/08 04:32:21;;;;;;;16.00;4.05;;;;;;;;;;5091275;28;20495;-73
2022/05/08 04:34:47;;;;;;;29.15;4.35;;;;;;;;;;5056120;28;20546;-73
2022/05/08 04:37:13;;;;;;;11.73;3.28;;;;;;;;;;5075069;28;20472;-72
2022/05/08 04:39:39;;;;;;;16.70;3.90;;;;;;;;;;5092908;28;20028;-73
2022/05/08 04:42:06;;;;;;;16.27;3.58;;;;;;;;;;5076145;28;20032;-73
2022/05/08 04:44:32;;;;;;;15.07;3.45;;;;;;;;;;5076788;28;20374;-73
2022/05/08 04:46:58;;;;;;;16.63;5.15;;;;;;;;;;5081133;28;20036;-73
2022/05/08 04:49:24;;;;;;;10.93;3.17;;;;;;;;;;5086177;28;20048;-73
2022/05/08 04:51:50;;;;;;;17.00;3.97;;;;;;;;;;5086469;28;20412;-72
2022/05/08 04:54:16;;;;;;;26.50;4.43;;;;;;;;;;5067805;28;20032;-73
2022/05/08 04:56:42;;;;;;;16.17;3.70;;;;;;;;;;5074775;28;20116;-74
2022/05/08 04:59:08;;;;;;;25.23;4.72;;;;;;;;;;5086947;28;20048;-73
2022/05/08 05:01:35;;;;;;;12.10;3.40;;;;;;;;;;5075662;28;20032;-74
2022/05/08 05:04:01;;;;;;;17.85;3.72;;;;;;;;;;5081030;28;20377;-73
2022/05/08 05:06:27;;;;;;;27.42;3.95;;;;;;;;;;5087365;28;20071;-74
2022/05/08 05:08:53;;;;;;;19.58;3.10;;;;;;;;;;5081906;28;20128;-74
2022/05/08 05:11:19;;;;;;;20.05;3.55;;;;;;;;;;5077526;28;20044;-74
2022/05/08 05:13:45;;;;;;;15.77;3.10;;;;;;;;;;5080717;28;20473;-74
2022/05/08 05:16:11;;;;;;;24.65;4.07;;;;;;;;;;5058866;28;20416;-74
2022/05/08 05:18:37;;;;;;;15.50;4.07;;;;;;;;;;5079295;28;20028;-74
2022/05/08 05:21:03;;;;;;;14.00;3.42;;;;;;;;;;5091363;28;20118;-74
2022/05/08 05:23:29;;;;;;;14.25;3.33;;;;;;;;;;5068582;28;20032;-74
2022/05/08 05:25:56;;;;;;;14.25;4.32;;;;;;;;;;5057139;28;20044;-74
2022/05/08 05:28:22;;;;;;;25.02;4.03;;;;;;;;;;5070493;28;20397;-74
2022/05/08 05:30:48;;;;;;;25.70;5.63;;;;;;;;;;5073867;28;20094;-74
2022/05/08 05:33:15;;;;;;;15.40;4.22;;;;;;;;;;5074590;28;20046;-74
2022/05/08 05:35:45;;;;;;;18.00;3.97;;;;;;;;;;5092158;28;20105;-74
2022/05/08 05:38:11;;;;;;;13.32;3.70;;;;;;;;;;5090247;28;20052;-74
2022/05/08 05:40:37;;;;;;;23.83;4.35;;;;;;;;;;5069482;28;20134;-74
2022/05/08 05:43:03;;;;;;;20.65;4.30;;;;;;;;;;5091638;28;20028;-74
2022/05/08 05:45:29;;;;;;;12.60;4.25;;;;;;;;;;5057855;28;20098;-74
2022/05/08 05:47:59;;;;;;;20.42;3.88;;;;;;;;;;5073406;28;20083;-74
2022/05/08 05:50:26;;;;;;;10.52;4.22;;;8.80;99.90;;;;;;5069525;28;20461;-74
2022/05/08 05:52:52;;;;;;;19.98;4.63;;;8.90;99.90;;;;;;5092109;28;20040;-74
2022/05/08 05:55:19;;;;;;;12.00;3.70;;;;;;;;;;5077057;28;20040;-74
2022/05/08 05:57:45;;;;;;;17.20;4.65;;;;;;;;;;5058864;28;20036;-74
2022/05/08 06:00:16;;;;;;;19.73;4.38;;;8.90;99.90;;;;;;5068952;28;20215;-74
2022/05/08 06:02:43;;;;;;;28.13;4.55;;;;;;;;;;5090695;28;20051;-73
2022/05/08 06:05:14;;;;;;;14.63;3.85;;;;;;;;;;5062790;28;20120;-73
2022/05/08 06:07:41;;;;;;;15.40;3.58;;;;;;;;;;5071986;28;20041;-74
2022/05/08 06:10:08;;;;;;;22.80;3.40;;;8.80;99.90;;;;;;5085516;28;20125;-74
2022/05/08 06:12:34;;;;;;;19.25;3.95;;;;;;;;;;5073024;28;20040;-74
2022/05/08 06:15:00;;;;;;;14.02;2.90;;;;;;;;;;5081656;28;20051;-74
2022/05/08 06:17:27;;;;;;;16.63;2.80;;;;;;;;;;5096707;28;20043;-74
2022/05/08 06:19:53;;;;;;;21.40;3.83;;;;;;;;;;5059266;28;20522;-74
2022/05/08 06:22:19;;;;;;;15.85;2.80;;;;;;;;;;5090867;28;20421;-74
2022/05/08 06:24:45;;;;;;;25.77;3.75;;;;;;;;;;5070523;28;20042;-74
2022/05/08 06:27:11;;;;;;;10.45;3.08;;;;;;;;;;5091220;28;20067;-74
2022/05/08 06:29:38;;;;;;;17.67;3.55;;;;;;;;;;5085159;28;20043;-74
2022/05/08 06:32:04;;;;;;;15.60;3.08;;;8.20;99.90;;;;;;5079321;28;20036;-75
2022/05/08 06:34:30;;;;;;;17.40;4.05;;;;;;;;;;5064102;28;20043;-74
2022/05/08 06:36:56;;;;;;;22.20;3.97;;;;;;;;;;5090943;28;20047;-74
2022/05/08 06:39:22;;;;;;;22.38;4.40;;;;;;;;;;5061809;28;20127;-74
2022/05/08 06:41:48;;;;;;;20.58;3.33;;;;;;;;;;5083154;28;20032;-74
2022/05/08 06:44:14;;;;;;;15.45;3.05;;;;;;;;;;5088839;28;21439;-74
2022/05/08 06:46:40;;;;;;;13.93;4.40;;;;;;;;;;5080035;28;20115;-74
2022/05/08 06:49:07;;;;;;;12.75;3.22;;;;;;;;;;5074483;28;20032;-74
2022/05/08 06:51:34;;;;;;;13.32;3.55;;;9.50;99.90;;;;;;5056583;28;20043;-74
2022/05/08 06:54:00;;;;;;;14.88;3.47;;;;;;;;;;5055606;28;20054;-74
2022/05/08 06:56:26;;;;;;;14.98;4.13;;;;;;;;;;5055343;28;20039;-74
2022/05/08 07:01:38;;;;;;;17.20;2.97;;;;;;;;;;5081043;28;20119;-74
2022/05/08 07:04:05;;;;;;;18.55;2.78;;;;;;;;;;5090301;28;20091;-74
2022/05/08 07:06:31;;;;;;;15.10;2.63;;;;;;;;;;5087256;28;20131;-74
2022/05/08 07:08:58;;;;;;;18.70;3.20;;;9.80;99.90;;;;;;5084396;28;20044;-74
2022/05/08 07:11:25;;;;;;;23.27;3.25;;;;;;;;;;5067766;28;20429;-74
2022/05/08 07:13:51;;;;;;;19.90;3.00;;;;;;;;;;5073763;28;20113;-73
2022/05/08 07:16:17;;;;;;;20.17;3.08;;;;;;;;;;5078478;28;20051;-73
2022/05/08 07:18:43;;;;;;;19.63;3.72;;;;;;;;;;5071140;28;20564;-73
2022/05/08 07:21:09;;;;;;;15.02;2.60;;;;;;;;;;5061524;28;20029;-73
2022/05/08 07:23:35;;;;;;;13.20;2.55;;;;;;;;;;5055251;28;20047;-73
2022/05/08 07:26:01;;;;;;;11.63;3.22;;;;;;;;;;5082044;28;20052;-73
2022/05/08 07:28:30;;;;;;;25.02;2.95;;;;;;;;;;5089843;28;20035;-73
2022/05/08 07:30:56;;;;;;;17.45;3.25;;;;;;;;;;5082302;28;20040;-73
2022/05/08 07:33:22;;;;;;;21.40;3.63;;;;;;;;;;5090183;28;20143;-73
2022/05/08 07:38:33;;;;;;;22.98;3.53;;;;;;;;;;5088092;28;20044;-73
2022/05/08 07:41:00;;;;;;;11.20;2.67;;;10.60;97.90;;;;;;5063745;28;20218;-73
2022/05/08 07:43:26;;;;;;;16.67;2.97;;;;;;;;;;5076099;28;20388;-73
2022/05/08 07:45:52;;;;;;;22.67;3.10;;;;;;;;;;5061028;28;20032;-73
2022/05/08 07:48:18;;;;;;;29.52;2.92;;;;;;;;;;5093568;28;20044;-73
2022/05/08 07:50:47;;;;;;;21.75;3.22;;;10.70;97.50;;;;;;5071914;28;20075;-73
2022/05/08 07:53:14;;;;;;;26.88;3.40;;;;;;;;;;5076817;28;20051;-73
2022/05/08 07:55:40;;;;;;;15.25;3.58;;;10.30;98.00;;;;;;5080174;28;20042;-73
2022/05/08 07:58:06;;;;;;;22.40;3.00;;;;;;;;;;5093685;28;20483;-73
2022/05/08 08:00:32;;;;;;;14.32;4.28;;;;;;;;;;5074191;28;20038;-73
2022/05/08 08:02:59;;;;;;;9.55;2.80;;;;;;;;;;5090646;28;20063;-73
2022/05/08 08:05:25;;;;;;;26.08;3.03;;;;;;;;;;5092431;28;20046;-73
2022/05/08 08:07:51;;;;;;;14.90;2.72;;;;;;;;;;5106020;28;20546;-73
2022/05/08 08:10:17;;;;;;;27.15;4.10;;;;;;;;;;5075661;28;20461;-73
2022/05/08 08:12:43;;;;;;;14.60;3.13;;;;;;;;;;5080314;28;20127;-73
2022/05/08 08:15:10;;;;;;;16.45;3.35;;;10.40;97.90;;;;;;5075361;28;20037;-73
2022/05/08 08:17:36;;;;;;;18.80;3.20;;;;;;;;;;5092239;28;20075;-73
2022/05/08 08:20:03;;;;;;;12.50;3.30;;;;;;;;;;5078044;28;20033;-73
2022/05/08 08:22:29;;;;;;;14.98;3.58;;;;;;;;;;5076228;28;20119;-73
2022/05/08 08:24:57;;;;;;;21.50;3.45;;;;;;;;;;5056392;28;20028;-74
2022/05/08 08:27:23;;;;;;;18.67;3.20;;;;;;;;;;5089115;28;20044;-74
2022/05/08 08:29:49;;;;;;;29.33;4.15;;;;;;;;;;5080170;28;20067;-73
2022/05/08 08:32:15;;;;;;;19.17;3.42;;;;;;;;;;5063522;28;20036;-73
2022/05/08 08:34:41;;;;;;;18.65;3.40;;;;;;;;;;5074771;28;20085;-73
2022/05/08 08:37:08;;;;;;;13.25;3.10;;;;;;;;;;5085539;28;20044;-73
2022/05/08 08:39:34;;;;;;;19.85;3.22;;;;;;;;;;5091687;28;20040;-74
2022/05/08 08:42:03;;;;;;;25.23;3.03;;;;;;;;;;5084300;28;20028;-71
2022/05/08 08:50:05;;;;;;;27.15;4.95;;;11.70;96.60;;;;;;5074208;28;20042;-72
2022/05/08 08:52:32;;;;;;;21.65;3.72;;;;;;;;;;5085716;28;20525;-72
2022/05/08 08:54:59;;;;;;;26.02;4.10;;;;;;;;;;5071320;28;20055;-72
2022/05/08 08:57:25;;;;;;;15.98;3.50;;;;;;;;;;5068549;28;20036;-72
2022/05/08 08:59:51;;;;;;;19.75;3.38;;;;;;;;;;5092280;28;20136;-71
2022/05/08 09:02:18;;;;;;;15.15;3.60;;;;;;;;;;5090115;28;20036;-72
2022/05/08 09:04:45;;;;;;;28.88;3.85;;;11.40;96.00;;;;;;5092825;28;20388;-72
2022/05/08 09:07:33;;;;;;;26.77;4.40;;;11.60;95.60;;;;;;5067435;28;20043;-75
2022/05/08 09:10:12;;;;;;;18.85;3.58;;;11.90;95.30;;;;;;5067119;28;20473;-72
2022/05/08 09:12:40;;;;;;;18.67;4.10;;;11.90;95.50;;;;;;5068533;28;20133;-71
2022/05/08 09:15:21;;;;;;;22.35;3.83;;;11.70;96.10;;;;;;5084987;28;20048;-72
2022/05/08 09:17:49;;;;;;;23.17;3.50;;;;;;;;;;5077754;28;20040;-72
2022/05/08 09:20:39;;;;;;;22.02;4.88;;;11.60;95.10;;;;;;5074112;28;20662;-72
2022/05/08 09:23:13;;;;;;;12.02;2.88;;;;;;;;;;5057710;28;20072;-72
2022/05/08 09:25:48;;;;;;;20.95;3.38;;;11.90;94.90;;;;;;5088034;28;20048;-72
2022/05/08 09:28:14;;;;;;;22.48;3.60;;;;;;;;;;5094008;28;20047;-72
2022/05/08 09:30:57;;;;;;;12.07;3.20;;;;;;;;;;5084812;28;20037;-73
2022/05/08 09:33:28;;;;;;;21.80;4.18;;;12.70;95.40;;;;;;5061205;28;20105;-73
2022/05/08 09:35:55;;;;;;;30.85;4.18;;;12.60;94.30;;;;;;5060213;28;20185;-74
2022/05/08 09:38:21;;;;;;;20.90;3.25;;;;;;;;;;5085551;28;20105;-73
2022/05/08 09:41:05;;;;;;;18.98;3.08;;;12.50;94.80;;;;;;5083047;28;20032;-73
2022/05/08 09:43:32;;;;;;;21.50;3.38;;;;;;;;;;5065079;28;20408;-73
2022/05/08 09:46:02;;;;;;;22.40;3.85;;;12.40;94.60;;;;;;5073631;28;20104;-73
2022/05/08 09:48:29;;;;;;;17.48;3.20;;;;;;;;;;5088567;28;20043;-69
2022/05/08 09:51:03;;;;;;;17.75;2.85;;;;;;;;;;5087446;28;20059;-74
2022/05/08 09:53:29;;;;;;;20.83;3.38;;;12.60;94.20;;;;;;5076629;28;20163;-72
2022/05/08 09:55:57;;;;;;;16.38;3.28;;;12.60;94.40;;;;;;5073330;28;20051;-73
2022/05/08 09:58:23;;;;;;;19.30;3.40;;;;;;;;;;5071964;28;20040;-75
2022/05/08 10:00:51;;;;;;;23.27;3.90;;;;;;;;;;5084361;28;20141;-74
2022/05/08 10:03:17;;;;;;;20.75;3.25;;;;;;;;;;5084824;28;20056;-72
2022/05/08 10:05:44;;;;;;;19.63;4.53;;;;;;;;;;5074287;28;20209;-72
2022/05/08 10:08:13;;;;;;;19.95;3.42;;;;;;;;;;5079811;28;20043;-73
2022/05/08 10:16:57;;;;;;;24.15;3.85;;;12.90;93.70;;;;;;5091194;28;20127;-74
2022/05/08 10:19:26;;;;;;;18.80;3.95;;;;;;;;;;5072987;28;20037;-74
2022/05/08 10:22:10;;;;;;;13.20;3.67;;;;;;;;;;5073803;28;20037;-74
2022/05/08 10:24:38;;;;;;;24.02;4.43;;;;;;;;;;5072752;28;20071;-74
2022/05/08 10:27:14;;;;;;;25.90;3.83;;;;;;;;;;5058268;28;20036;-74
2022/05/08 10:29:49;;;;;;;26.25;4.25;;;13.40;91.90;;;;;;5090678;28;20384;-73
2022/05/08 10:32:33;;;;;;;21.98;4.28;;;;;;;;;;5087389;28;20032;-74
2022/05/08 10:35:09;;;;;;;25.33;3.58;;;;;;;;;;5072650;28;20071;-72
2022/05/08 10:37:35;;;;;;;24.50;3.95;;;;;;;;;;5078194;28;20035;-73
2022/05/08 10:40:01;;;;;;;18.10;4.25;;;;;;;;;;5076378;28;20447;-73
2022/05/08 10:42:33;;;;;;;25.38;4.00;;;;;;;;;;5084881;28;20043;-74
2022/05/08 10:45:00;;;;;;;22.30;3.78;;;;;;;;;;5056565;28;20040;-73
2022/05/08 10:47:32;;;;;;;21.48;3.45;;;14.20;91.20;;;;;;5073944;28;20067;-73
2022/05/08 10:49:58;;;;;;;19.20;3.93;;;14.20;91.50;;;;;;5090313;28;20036;-72
2022/05/08 10:52:24;;;;;;;21.67;3.78;;;14.80;95.10;;;;;;5090415;28;20036;-74
2022/05/08 10:55:02;;;;;;;22.30;3.75;;;14.00;91.50;;;;;;5071947;28;20546;-71
2022/05/08 10:57:28;;;;;;;18.83;3.15;;;14.00;91.10;;;;;;5072852;28;20041;-74
2022/05/08 10:59:55;;;;;;;21.92;3.30;;;;;;;;;;5090167;28;20098;-73
2022/05/08 11:02:54;;;;;;;23.08;4.28;;;13.90;91.00;;;;;;5090376;28;20032;-72
2022/05/08 11:05:25;;;;;;;22.25;4.30;;;14.10;91.30;;;;;;5089711;28;20036;-73
2022/05/08 11:07:52;;;;;;;20.15;3.80;;;;;;;;;;5081719;28;20069;-73
2022/05/08 11:10:28;;;;;;;19.60;3.80;;;14.50;90.90;;;;;;5090283;28;20089;-74
2022/05/08 11:13:04;;;;;;;22.58;3.80;;;;;;;;;;5086375;28;20098;-75
2022/05/08 11:15:38;;;;;;;16.23;3.47;;;14.60;91.10;;;;;;5089789;28;20046;-75
2022/05/08 11:18:04;;;;;;;21.02;3.30;;;;;;;;;;5088501;28;20082;-75
2022/05/08 11:20:36;;;;;;;19.73;3.85;;;;;;;;;;5089696;28;20468;-75
2022/05/08 11:23:02;;;;;;;18.02;3.67;;;;;;;;;;5087606;28;20043;-75
2022/05/08 11:25:28;;;;;;;24.95;4.22;;;;;;;;;;5054512;28;20488;-75
2022/05/08 11:27:55;;;;;;;21.67;4.00;;;14.50;90.10;;;;;;5059261;28;20041;-74
2022/05/08 11:30:38;;;;;;;20.95;4.00;;;14.60;90.50;;;;;;5059693;28;20076;-74
2022/05/08 11:36:05;;;;;;;14.50;3.20;;;14.60;89.00;;;;;;5088401;28;19955;-74
2022/05/08 11:38:44;;;;;;;26.38;4.30;;;;;;;;;;5068190;28;20091;-74
2022/05/08 11:41:17;;;;;;;21.25;3.58;;;;;;;;;;5087645;28;20050;-75
2022/05/08 11:43:44;;;;;;;27.35;4.85;;;;;;;;;;5092803;28;20054;-75
2022/05/08 11:46:15;;;;;;;18.85;3.78;;;;;;;;;;5089465;28;20074;-74
2022/05/08 11:48:42;;;;;;;22.30;4.75;;;;;;;;;;5083055;28;20081;-75
2022/05/08 11:51:12;;;;;;;34.35;4.65;;;15.00;89.00;;;;;;5069404;28;20047;-75
2022/05/08 11:53:39;;;;;;;21.45;4.32;;;;;;;;;;5057503;28;20036;-76
2022/05/08 11:56:26;;;;;;;28.77;4.20;;;;;;;;;;5076876;28;20555;-74
2022/05/08 11:58:52;;;;;;;25.73;4.60;;;;;;;;;;5076739;28;20044;-74
2022/05/08 12:01:37;;;;;;;20.65;4.10;;;14.80;90.30;;;;;;5089504;28;20549;-74
2022/05/08 12:04:21;;;;;;;34.05;4.25;;;;;;;;;;5081872;28;20056;-74
2022/05/08 12:06:59;;;;;;;30.52;4.45;;;;;;;;;;5071326;28;20037;-71
2022/05/08 12:09:25;;;;;;;30.55;4.45;;;;;;;;;;5077591;28;20040;-71
2022/05/08 12:11:51;;;;;;;24.85;4.35;;;;;;;;;;5089084;28;20506;-71
2022/05/08 12:14:28;;;;;;;26.58;5.13;;;;;;;;;;5086353;28;20128;-71
2022/05/08 12:17:02;;;;;;;24.88;4.15;;;;;;;;;;5083547;28;20097;-75
2022/05/08 12:19:28;;;;;;;26.20;4.03;;;;;;;;;;5084112;28;20500;-74
2022/05/08 12:21:55;;;;;;;22.95;4.65;;;;;;;;;;5059226;28;20090;-84
2022/05/08 12:24:21;;;;;;;20.25;4.22;;;;;;;;;;5070646;28;20044;-81
2022/05/08 12:26:50;;;;;;;22.02;4.05;;;;;;;;;;5075471;28;20029;-74
2022/05/08 12:29:20;;;;;;;19.00;4.72;;;15.30;87.00;;;;;;5076841;28;20036;-74
2022/05/08 12:31:50;;;;;;;34.70;5.88;;;15.30;87.10;;;;;;5084614;28;20031;-74
2022/05/08 12:34:20;;;;;;;24.17;3.83;;;15.40;87.30;;;;;;5089219;28;20496;-75
2022/05/08 12:36:48;;;;;;;22.00;3.53;;;;;;;;;;5074705;28;20403;-75
2022/05/08 12:39:14;;;;;;;21.80;3.65;;;;;;;;;;5076107;28;20044;-74
2022/05/08 12:41:40;;;;;;;21.13;3.95;;;;;;;;;;5091320;28;20480;-71
2022/05/08 12:44:07;;;;;;;20.77;4.43;;;15.50;85.60;;;;;;5073436;28;20545;-74
2022/05/08 12:46:34;;;;;;;24.88;4.03;;;15.70;85.60;;;;;;5091954;28;20029;-74
2022/05/08 12:49:03;;;;;;;22.10;4.63;;;;;;;;;;5086354;28;20036;-74
2022/05/08 12:51:30;;;;;;;21.33;3.80;;;;;;;;;;5057980;28;20093;-74
2022/05/08 12:53:57;;;;;;;33.45;5.07;;;;;;;;;;5074445;28;20510;-74
2022/05/08 12:56:23;;;;;;;22.75;4.75;;;;;;;;;;5074044;28;20416;-75
2022/05/08 13:01:34;;;;;;;18.92;3.95;;;;;;;;;;5087193;28;20173;-75
2022/05/08 13:04:02;;;;;;;19.70;3.40;;;;;;;;;;5092357;28;20059;-75
2022/05/08 13:06:28;;;;;;;23.02;3.60;;;;;;;;;;5074502;28;20044;-75
2022/05/08 13:08:55;;;;;;;23.75;4.40;;;;;;;;;;5086099;28;20170;-75
2022/05/08 13:11:21;;;;;;;20.70;3.70;;;;;;;;;;5088844;28;20040;-75
2022/05/08 13:13:47;;;;;;;31.05;4.07;;;;;;;;;;5091961;28;20487;-75
2022/05/08 13:16:15;;;;;;;20.95;3.85;;;;;;;;;;5079759;28;20388;-75
2022/05/08 13:18:44;;;;;;;27.10;4.82;;;;;;;;;;5075510;28;20119;-75
2022/05/08 13:21:11;;;;;;;27.90;4.05;;;15.90;85.50;;;;;;5063549;28;20049;-75
2022/05/08 13:23:37;;;;;;;23.60;3.45;;;;;;;;;;5073912;28;20040;-74
2022/05/08 13:26:03;;;;;;;23.50;3.67;;;16.00;92.00;;;;;;5060765;28;20044;-74
2022/05/08 13:28:31;;;;;;;28.38;4.15;;;;;;;;;;5059301;28;20035;-74
2022/05/08 13:30:58;;;;;;;23.23;4.30;;;15.60;85.60;;;;;;5082232;28;20051;-74
2022/05/08 13:33:26;;;;;;;20.88;3.83;;;;;;;;;;5092170;28;20047;-75
2022/05/08 13:35:53;;;;;;;27.48;3.85;;;;;;;;;;5083453;28;20459;-75
2022/05/08 13:38:20;;;;;;;20.52;3.92;;;;;;;;;;5056203;28;20396;-75
2022/05/08 13:40:49;;;;;;;24.80;3.63;;;16.10;85.20;;;;;;5067178;28;20071;-75
2022/05/08 13:43:15;;;;;;;15.15;3.45;;;15.30;91.30;;;;;;5059123;28;20472;-75
2022/05/08 13:45:43;;;;;;;28.67;3.92;;;15.70;91.10;;;;;;5091086;28;20048;-75
2022/05/08 13:48:09;;;;;;;23.27;3.97;;;;;;;;;;5086506;28;20071;-75
2022/05/08 13:50:35;;;;;;;21.65;4.07;;;;;;;;;;5070603;28;20117;-75
2022/05/08 13:53:04;;;;;;;36.60;4.75;;;;;;;;;;5073338;28;20037;-75
2022/05/08 13:55:31;;;;;;;20.10;3.38;;;;;;;;;;5087758;28;20040;-74
2022/05/08 13:57:57;;;;;;;16.88;3.10;;;;;;;;;;5066558;28;20041;-76
2022/05/08 14:00:23;;;;;;;20.05;4.15;;;;;;;;;;5089168;28;20052;-75
2022/05/08 14:02:49;;;;;;;20.80;3.80;;;;;;;;;;5072978;28;20741;-74
2022/05/08 14:05:15;;;;;;;16.02;3.75;;;;;;;;;;5088150;28;20061;-74
2022/05/08 14:07:43;;;;;;;23.75;4.20;;;;;;;;;;5072826;28;20044;-74
2022/05/08 14:10:09;;;;;;;33.47;4.10;;;;;;;;;;5074256;28;20040;-74
2022/05/08 14:12:35;;;;;;;25.00;4.95;;;16.00;83.20;;;;;;5073985;28;20052;-75
2022/05/08 14:15:02;;;;;;;23.30;4.03;;;;;;;;;;5074446;28;20357;-75
2022/05/08 14:17:28;;;;;;;17.50;3.50;;;;;;;;;;5089984;28;20028;-75
2022/05/08 14:19:54;;;;;;;19.73;3.30;;;;;;;;;;5090992;28;20404;-75
2022/05/08 14:22:20;;;;;;;19.70;3.60;;;;;;;;;;5082548;28;20040;-75
2022/05/08 14:24:46;;;;;;;24.33;3.60;;;;;;;;;;5089903;28;20024;-75
2022/05/08 14:27:12;;;;;;;26.10;3.88;;;;;;;;;;5084821;28;20028;-75
2022/05/08 14:29:38;;;;;;;13.02;3.20;;;;;;;;;;5074398;28;20039;-75
2022/05/08 14:37:34;;;;;;;16.73;3.55;;;;;;;;;;5086310;28;20044;-75
2022/05/08 14:40:00;;;;;;;25.13;3.42;;;;;;;;;;5090639;28;20036;-75
2022/05/08 14:42:26;;;;;;;17.25;4.00;;;;;;;;;;5078366;28;20032;-73
2022/05/08 14:44:52;;;;;;;21.77;4.28;;;;;;;;;;5072388;28;20546;-74